Time;durP1;ratioP1;P1;durP2;ratioP2;P2;SDS_P1;SDS_P2;PMS_P1;PMS_P2;Temp;Humidity;BMP_temperature;BMP_pressure;BME280_temperature;BME280_humidity;BME280_pressure;Samples;Min_cycle;Max_cycle;Signal;HPM_P1;HPM_P2
2023/01/21 00:01:16;;;;;;;20.90;10.38;;;-6.50;99.90;;;;;;5007970;28;20413;-57
2023/01/21 00:03:42;;;;;;;21.05;10.73;;;-6.50;99.90;;;;;;5007648;28;20174;-55
2023/01/21 00:06:08;;;;;;;25.23;11.40;;;-6.50;99.90;;;;;;5004818;28;20189;-56
2023/01/21 00:08:34;;;;;;;26.75;11.23;;;-6.50;99.90;;;;;;5006123;28;20224;-56
2023/01/21 00:11:13;;;;;;;18.50;9.87;;;-6.40;99.90;;;;;;5009489;28;20662;-57
2023/01/21 00:13:39;;;;;;;20.40;10.80;;;-6.40;99.90;;;;;;5001070;28;20173;-55
2023/01/21 00:16:05;;;;;;;22.43;10.60;;;-6.40;99.90;;;;;;5004980;28;20888;-57
2023/01/21 00:18:31;;;;;;;24.63;11.10;;;-6.40;99.90;;;;;;5007644;28;20805;-56
2023/01/21 00:20:57;;;;;;;25.33;12.97;;;-6.40;99.90;;;;;;5006249;28;20808;-56
2023/01/21 00:23:22;;;;;;;20.63;11.00;;;-6.30;99.90;;;;;;5003907;28;20440;-55
2023/01/21 00:25:48;;;;;;;24.93;12.30;;;-6.30;99.90;;;;;;5007603;28;20178;-57
2023/01/21 00:28:14;;;;;;;24.60;11.90;;;-6.20;99.90;;;;;;5011716;28;20199;-55
2023/01/21 00:30:40;;;;;;;22.50;11.70;;;-6.20;99.90;;;;;;5005667;28;20272;-53
2023/01/21 00:33:06;;;;;;;22.48;11.30;;;-6.20;99.90;;;;;;5005306;28;20175;-56
2023/01/21 00:35:32;;;;;;;30.07;12.83;;;-6.10;99.90;;;;;;5005631;28;20261;-55
2023/01/21 00:37:58;;;;;;;31.10;12.40;;;-6.10;99.90;;;;;;5008363;28;21009;-55
2023/01/21 00:40:24;;;;;;;28.57;11.93;;;-6.10;99.90;;;;;;5007550;28;20191;-53
2023/01/21 00:42:50;;;;;;;26.67;11.70;;;-6.10;99.90;;;;;;5008567;28;20181;-55
2023/01/21 00:45:16;;;;;;;18.53;10.40;;;-6.00;99.90;;;;;;5004255;28;20803;-56
2023/01/21 00:47:41;;;;;;;21.50;11.17;;;-6.00;99.90;;;;;;5004757;28;20308;-55
2023/01/21 00:50:08;;;;;;;24.70;10.67;;;-6.00;99.90;;;;;;5000219;28;20466;-57
2023/01/21 00:52:34;;;;;;;16.70;9.87;;;-6.00;99.90;;;;;;5005909;28;20179;-55
2023/01/21 00:54:59;;;;;;;26.37;10.93;;;-6.00;99.90;;;;;;5006387;28;20403;-59
2023/01/21 00:57:25;;;;;;;19.17;10.60;;;-6.00;99.90;;;;;;5007102;28;20161;-56
2023/01/21 00:59:52;;;;;;;20.57;11.23;;;-6.00;99.90;;;;;;5004523;28;20775;-56
2023/01/21 01:02:18;;;;;;;22.87;11.27;;;-6.00;99.90;;;;;;5005446;28;20200;-57
2023/01/21 01:04:43;;;;;;;21.70;10.90;;;-6.00;99.90;;;;;;5006546;28;20436;-56
2023/01/21 01:07:09;;;;;;;20.43;10.27;;;-6.00;99.90;;;;;;5003917;28;20516;-56
2023/01/21 01:09:35;;;;;;;19.90;11.00;;;-6.00;99.90;;;;;;5005771;28;20213;-55
2023/01/21 01:12:01;;;;;;;22.77;10.37;;;-6.00;99.90;;;;;;5005671;28;20428;-57
2023/01/21 01:14:26;;;;;;;21.43;9.97;;;-6.00;99.90;;;;;;5004354;28;20779;-56
2023/01/21 01:16:52;;;;;;;23.40;9.93;;;-6.00;99.90;;;;;;5008497;28;20182;-56
2023/01/21 01:19:17;;;;;;;21.83;11.20;;;-6.00;99.90;;;;;;5005260;28;20209;-56
2023/01/21 01:21:43;;;;;;;19.30;11.00;;;-6.00;99.90;;;;;;5006623;28;20178;-55
2023/01/21 01:24:08;;;;;;;23.63;11.33;;;-6.00;99.90;;;;;;5008793;28;20260;-56
2023/01/21 01:26:35;;;;;;;18.57;10.47;;;-5.90;99.90;;;;;;5007145;28;20178;-57
2023/01/21 01:29:02;;;;;;;20.17;10.93;;;-5.90;99.90;;;;;;5003783;28;20197;-56
2023/01/21 01:31:27;;;;;;;18.73;10.50;;;-5.80;99.90;;;;;;5004897;28;20459;-55
2023/01/21 01:33:53;;;;;;;22.50;12.17;;;-5.80;99.90;;;;;;5006763;28;20451;-56
2023/01/21 01:36:24;;;;;;;23.43;12.93;;;-5.70;99.90;;;;;;5006003;28;20656;-58
2023/01/21 01:38:50;;;;;;;21.07;11.00;;;-5.70;99.90;;;;;;5005540;28;20206;-55
2023/01/21 01:41:27;;;;;;;20.37;11.30;;;-5.70;99.90;;;;;;5004931;28;20431;-58
2023/01/21 01:44:01;;;;;;;23.90;11.97;;;-5.60;99.90;;;;;;5006301;28;20441;-57
2023/01/21 01:46:29;;;;;;;21.30;12.27;;;-5.60;99.90;;;;;;5005875;28;20439;-57
2023/01/21 01:48:58;;;;;;;27.03;11.53;;;-5.60;99.90;;;;;;5006175;28;20464;-56
2023/01/21 01:51:43;;;;;;;25.63;12.03;;;-5.50;99.90;;;;;;5000943;28;20845;-57
2023/01/21 01:54:11;;;;;;;25.50;12.20;;;-5.50;99.90;;;;;;5003749;28;20812;-55
2023/01/21 01:56:40;;;;;;;26.90;11.30;;;-5.50;99.90;;;;;;5005847;28;20426;-57
2023/01/21 01:59:06;;;;;;;22.00;12.03;;;-5.50;99.90;;;;;;5003284;28;20448;-58
2023/01/21 02:01:32;;;;;;;23.67;11.63;;;-5.50;99.90;;;;;;5003197;28;20437;-56
2023/01/21 02:03:59;;;;;;;28.03;12.77;;;-5.40;99.90;;;;;;5004111;28;20211;-56
2023/01/21 02:06:26;;;;;;;25.23;11.50;;;-5.40;99.90;;;;;;5002062;28;20196;-59
2023/01/21 02:08:52;;;;;;;33.00;11.90;;;-5.40;99.90;;;;;;5010761;28;20459;-58
2023/01/21 02:11:19;;;;;;;22.10;12.07;;;-5.40;99.90;;;;;;5010433;28;20464;-57
2023/01/21 02:13:51;;;;;;;21.50;11.80;;;-5.40;99.90;;;;;;5009877;28;20442;-57
2023/01/21 02:16:26;;;;;;;31.00;12.47;;;-5.30;99.90;;;;;;5000592;28;21151;-58
2023/01/21 02:19:17;;;;;;;29.13;12.47;;;-5.30;99.90;;;;;;5009409;28;20475;-57
2023/01/21 02:21:58;;;;;;;27.87;13.50;;;-5.30;99.90;;;;;;5007863;28;20487;-58
2023/01/21 02:24:35;;;;;;;24.80;11.07;;;-5.30;99.90;;;;;;5007752;28;20433;-56
2023/01/21 02:27:07;;;;;;;33.73;14.67;;;-5.20;99.90;;;;;;5008841;28;20517;-59
2023/01/21 02:29:54;;;;;;;28.70;13.10;;;-5.20;99.90;;;;;;5010606;28;20475;-56
2023/01/21 02:32:55;;;;;;;26.20;13.20;;;-5.20;99.90;;;;;;5009103;28;20468;-57
2023/01/21 02:35:27;;;;;;;27.80;11.67;;;-5.10;99.90;;;;;;5007645;28;20483;-56
2023/01/21 02:38:47;;;;;;;24.87;12.13;;;-5.10;99.90;;;;;;5003814;28;20800;-57
2023/01/21 02:41:27;;;;;;;27.70;13.20;;;-5.10;99.90;;;;;;4994168;28;20464;-57
2023/01/21 02:44:36;;;;;;;21.67;12.67;;;-5.10;99.90;;;;;;5008277;28;20518;-55
2023/01/21 02:47:24;;;;;;;31.30;15.20;;;-5.10;99.90;;;;;;4984721;28;20490;-57
2023/01/21 02:49:54;;;;;;;31.30;13.67;;;-5.10;99.90;;;;;;5007524;28;20464;-59
2023/01/21 02:52:22;;;;;;;31.60;14.30;;;-5.10;99.90;;;;;;5008820;28;20436;-58
2023/01/21 02:54:53;;;;;;;42.17;15.43;;;-5.10;99.90;;;;;;5006009;28;20436;-56
2023/01/21 02:57:41;;;;;;;37.63;16.27;;;-5.10;99.90;;;;;;5004851;28;20914;-56
2023/01/21 03:00:14;;;;;;;40.70;17.17;;;-5.10;99.90;;;;;;5003543;28;20791;-58
2023/01/21 03:02:50;;;;;;;34.67;15.67;;;-5.10;99.90;;;;;;5006977;28;20491;-55
2023/01/21 03:05:47;;;;;;;43.13;17.03;;;-5.10;99.90;;;;;;5004748;28;20423;-58
2023/01/21 03:08:21;;;;;;;34.50;16.77;;;-5.20;99.90;;;;;;5002180;28;20425;-55
2023/01/21 03:10:54;;;;;;;38.80;16.90;;;-5.20;99.90;;;;;;5004366;28;20456;-55
2023/01/21 03:19:04;;;;;;;37.87;18.70;;;-5.20;99.90;;;;;;5003272;28;20544;-55
2023/01/21 03:21:32;;;;;;;47.63;20.03;;;-5.30;99.90;;;;;;5003597;28;20441;-56
2023/01/21 03:23:58;;;;;;;45.67;18.10;;;-5.30;99.90;;;;;;5012061;28;20979;-55
2023/01/21 03:26:32;;;;;;;38.83;17.50;;;-5.30;99.90;;;;;;5008487;28;20445;-56
2023/01/21 03:29:01;;;;;;;37.17;16.10;;;-5.20;99.90;;;;;;5015667;28;20448;-56
2023/01/21 03:31:30;;;;;;;40.47;17.27;;;-5.30;99.90;;;;;;5014922;28;20565;-55
2023/01/21 03:33:59;;;;;;;36.73;16.20;;;-5.30;99.90;;;;;;5005264;28;21064;-56
2023/01/21 03:36:31;;;;;;;47.73;18.17;;;-5.40;99.90;;;;;;5006207;28;20580;-57
2023/01/21 03:38:58;;;;;;;40.43;18.33;;;-5.40;99.90;;;;;;5012076;28;20480;-57
2023/01/21 03:41:32;;;;;;;54.83;19.93;;;-5.40;99.90;;;;;;5010090;28;20438;-54
2023/01/21 03:43:59;;;;;;;45.87;20.87;;;-5.40;99.90;;;;;;5006225;28;20439;-57
2023/01/21 03:46:40;;;;;;;45.80;19.20;;;-5.40;99.90;;;;;;5005216;28;20432;-55
2023/01/21 03:49:18;;;;;;;36.50;17.03;;;-5.40;99.90;;;;;;5007953;28;20501;-55
2023/01/21 03:51:50;;;;;;;40.27;18.77;;;-5.40;99.90;;;;;;5030850;22;20915;-60
2023/01/21 03:54:16;;;;;;;39.93;17.37;;;-5.40;99.90;;;;;;5026574;28;20429;-60
2023/01/21 03:56:41;;;;;;;37.57;16.20;;;-5.50;99.90;;;;;;5027044;28;20428;-60
2023/01/21 03:59:07;;;;;;;37.40;16.47;;;-5.50;99.90;;;;;;5026021;28;20535;-60
2023/01/21 04:01:33;;;;;;;41.10;16.10;;;-5.60;99.90;;;;;;5028058;28;20204;-59
2023/01/21 04:03:58;;;;;;;37.10;16.50;;;-5.70;99.90;;;;;;5026337;28;20247;-59
2023/01/21 04:06:24;;;;;;;34.00;15.90;;;-5.70;99.90;;;;;;5020876;28;20188;-60
2023/01/21 04:08:49;;;;;;;34.00;15.40;;;-5.70;99.90;;;;;;5024722;28;20186;-60
2023/01/21 04:11:15;;;;;;;38.07;15.70;;;-5.80;99.90;;;;;;5028610;28;20268;-60
2023/01/21 04:13:41;;;;;;;32.00;15.20;;;-5.80;99.90;;;;;;5027276;28;20185;-60
2023/01/21 04:16:07;;;;;;;34.00;15.87;;;-5.80;99.90;;;;;;5027901;28;21087;-60
2023/01/21 04:18:32;;;;;;;36.27;15.73;;;-5.80;99.90;;;;;;5026555;28;20176;-59
2023/01/21 04:20:58;;;;;;;31.40;14.90;;;-5.80;99.90;;;;;;5025625;28;20527;-59
2023/01/21 04:23:24;;;;;;;33.47;15.93;;;-5.90;99.90;;;;;;5025608;28;20259;-60
2023/01/21 04:25:50;;;;;;;36.07;16.27;;;-5.90;99.90;;;;;;5021617;28;20176;-60
2023/01/21 04:28:17;;;;;;;32.97;15.67;;;-5.90;99.90;;;;;;5026212;28;20181;-59
2023/01/21 04:30:42;;;;;;;34.00;14.90;;;-6.00;99.90;;;;;;5025515;28;20525;-59
2023/01/21 04:33:08;;;;;;;36.20;16.43;;;-6.10;99.90;;;;;;5019500;28;20439;-60
2023/01/21 04:35:35;;;;;;;37.27;16.17;;;-6.10;99.90;;;;;;5029039;28;20181;-60
2023/01/21 04:38:01;;;;;;;30.97;16.07;;;-6.20;99.90;;;;;;5026000;28;20170;-60
2023/01/21 04:40:26;;;;;;;31.23;15.20;;;-6.20;99.90;;;;;;5022519;28;20575;-60
2023/01/21 04:42:52;;;;;;;33.43;14.90;;;-6.30;99.90;;;;;;5025428;28;20487;-60
2023/01/21 04:45:18;;;;;;;35.00;15.90;;;-6.30;99.90;;;;;;5028316;28;20184;-59
2023/01/21 04:47:43;;;;;;;26.87;13.80;;;-6.30;99.90;;;;;;5023895;28;20181;-59
2023/01/21 04:50:10;;;;;;;26.23;12.90;;;-6.30;99.90;;;;;;5019582;28;20209;-59
2023/01/21 04:52:36;;;;;;;25.03;12.03;;;-6.30;99.90;;;;;;5022750;28;20203;-60
2023/01/21 04:55:03;;;;;;;27.57;13.00;;;-6.40;99.90;;;;;;5023447;28;20436;-59
2023/01/21 04:57:28;;;;;;;26.13;13.70;;;-6.40;99.90;;;;;;5026022;28;20525;-60
2023/01/21 04:59:54;;;;;;;33.30;13.57;;;-6.40;99.90;;;;;;5024553;28;20494;-60
2023/01/21 05:02:20;;;;;;;27.10;13.13;;;-6.40;99.90;;;;;;5025781;28;20201;-59
2023/01/21 05:04:45;;;;;;;22.53;12.03;;;-6.50;99.90;;;;;;5023671;28;20180;-59
2023/01/21 05:07:11;;;;;;;29.43;13.13;;;-6.50;99.90;;;;;;5026153;28;20192;-59
2023/01/21 05:09:37;;;;;;;25.30;12.00;;;-6.50;99.90;;;;;;5021229;28;20252;-60
2023/01/21 05:12:03;;;;;;;24.50;11.90;;;-6.50;99.90;;;;;;5026257;28;20196;-58
2023/01/21 05:14:29;;;;;;;26.63;13.23;;;-6.60;99.90;;;;;;5028069;28;20505;-59
2023/01/21 05:16:54;;;;;;;35.63;13.03;;;-6.60;99.90;;;;;;5027724;28;20985;-59
2023/01/21 05:19:20;;;;;;;28.50;12.30;;;-6.70;99.90;;;;;;5019845;28;20227;-59
2023/01/21 05:21:46;;;;;;;31.17;12.63;;;-6.80;99.90;;;;;;5025364;28;20192;-60
2023/01/21 05:24:11;;;;;;;27.53;12.63;;;-6.80;99.90;;;;;;5025801;28;20175;-59
2023/01/21 05:26:37;;;;;;;31.40;13.03;;;-6.90;99.90;;;;;;5022811;28;20222;-59
2023/01/21 05:29:02;;;;;;;25.33;12.00;;;-7.00;99.90;;;;;;5024183;28;20223;-60
2023/01/21 05:31:28;;;;;;;32.83;13.87;;;-7.00;99.90;;;;;;5030168;28;20212;-59
2023/01/21 05:33:55;;;;;;;23.27;12.53;;;-7.00;99.90;;;;;;5019469;28;20709;-60
2023/01/21 05:36:21;;;;;;;30.42;12.60;;;-7.00;99.90;;;;;;5030198;28;20263;-60
2023/01/21 05:38:47;;;;;;;28.27;12.27;;;-7.00;99.90;;;;;;5021410;28;20275;-60
2023/01/21 05:41:12;;;;;;;26.90;13.20;;;-7.00;99.90;;;;;;5023152;28;20816;-60
2023/01/21 05:43:38;;;;;;;22.77;11.50;;;-7.00;99.90;;;;;;5031186;28;20173;-59
2023/01/21 05:46:04;;;;;;;28.67;12.87;;;-7.00;99.90;;;;;;5024294;28;20188;-59
2023/01/21 05:48:30;;;;;;;26.30;11.85;;;-7.00;99.90;;;;;;5030556;28;20257;-59
2023/01/21 05:50:56;;;;;;;28.40;10.88;;;-7.10;99.90;;;;;;5028559;28;20594;-59
2023/01/21 05:53:23;;;;;;;23.93;11.50;;;-7.10;99.90;;;;;;5029784;28;20176;-59
2023/01/21 05:55:55;;;;;;;24.88;10.88;;;-7.10;99.90;;;;;;5028338;28;21695;-59
2023/01/21 05:58:22;;;;;;;21.65;11.00;;;-7.20;99.90;;;;;;5027585;28;20244;-59
2023/01/21 06:00:47;;;;;;;19.65;10.68;;;-7.30;99.90;;;;;;5023863;28;20188;-60
2023/01/21 06:03:14;;;;;;;24.83;11.43;;;-7.30;99.90;;;;;;5044816;28;20181;-60
2023/01/21 06:05:40;;;;;;;26.23;10.75;;;-7.30;99.90;;;;;;5030808;28;20441;-59
2023/01/21 06:08:07;;;;;;;27.83;11.93;;;-7.30;99.90;;;;;;5025829;28;20211;-60
2023/01/21 06:10:33;;;;;;;24.80;11.50;;;-7.30;99.90;;;;;;5027807;28;20197;-60
2023/01/21 06:12:58;;;;;;;25.80;12.45;;;-7.30;99.90;;;;;;5045190;28;20211;-59
2023/01/21 06:15:27;;;;;;;21.73;11.17;;;-7.30;99.90;;;;;;5031123;28;20173;-60
2023/01/21 06:17:52;;;;;;;25.55;10.90;;;-7.30;99.90;;;;;;5025208;28;20169;-60
2023/01/21 06:20:18;;;;;;;27.70;10.93;;;-7.20;99.90;;;;;;5030037;28;20714;-60
2023/01/21 06:22:44;;;;;;;23.03;11.30;;;-7.20;99.90;;;;;;5032245;28;20707;-60
2023/01/21 06:25:10;;;;;;;29.77;12.80;;;-7.20;99.90;;;;;;5019544;28;20432;-60
2023/01/21 06:27:37;;;;;;;27.70;13.23;;;-7.20;99.90;;;;;;5024653;28;20234;-60
2023/01/21 06:30:06;;;;;;;26.98;12.15;;;-7.20;99.90;;;;;;5029442;28;20874;-60
2023/01/21 06:32:33;;;;;;;28.13;12.40;;;-7.20;99.90;;;;;;5027207;28;20696;-60
2023/01/21 06:34:58;;;;;;;27.50;12.45;;;-7.20;99.90;;;;;;5027761;28;20180;-60
2023/01/21 06:37:24;;;;;;;25.83;12.63;;;-7.20;99.90;;;;;;5023845;28;20173;-60
2023/01/21 06:39:50;;;;;;;25.17;12.30;;;-7.30;99.90;;;;;;5027791;28;20205;-60
2023/01/21 06:42:16;;;;;;;29.73;13.40;;;-7.40;99.90;;;;;;5028870;28;20608;-60
2023/01/21 06:44:43;;;;;;;23.63;12.63;;;-7.40;99.90;;;;;;5031459;28;20187;-60
2023/01/21 06:47:08;;;;;;;32.28;13.65;;;-7.40;99.90;;;;;;5030085;28;20222;-60
2023/01/21 06:49:34;;;;;;;31.17;11.63;;;-7.30;99.90;;;;;;5027977;28;20590;-60
2023/01/21 06:52:00;;;;;;;20.87;11.57;;;-7.40;99.90;;;;;;5027338;28;20479;-60
2023/01/21 06:54:25;;;;;;;31.23;12.87;;;-7.40;99.90;;;;;;5029019;28;20180;-61
2023/01/21 06:56:51;;;;;;;24.10;12.60;;;-7.40;99.90;;;;;;5030921;28;20180;-59
2023/01/21 06:59:17;;;;;;;30.90;12.87;;;-7.30;99.90;;;;;;5028494;28;20192;-59
2023/01/21 07:01:42;;;;;;;28.43;12.67;;;-7.30;99.90;;;;;;5028430;28;20234;-60
2023/01/21 07:04:08;;;;;;;32.70;12.40;;;-7.30;99.90;;;;;;5026477;28;20707;-60
2023/01/21 07:06:33;;;;;;;24.80;12.30;;;-7.40;99.90;;;;;;5030698;28;20226;-60
2023/01/21 07:08:59;;;;;;;26.70;12.10;;;-7.40;99.90;;;;;;5027651;28;20194;-60
2023/01/21 07:11:25;;;;;;;25.60;11.33;;;-7.40;99.90;;;;;;5029861;28;20235;-59
2023/01/21 07:13:50;;;;;;;27.67;12.47;;;-7.40;99.90;;;;;;5028673;28;20187;-60
2023/01/21 07:16:16;;;;;;;32.80;13.30;;;-7.40;99.90;;;;;;5027321;28;20641;-60
2023/01/21 07:18:41;;;;;;;22.97;11.93;;;-7.40;99.90;;;;;;5024073;28;20272;-60
2023/01/21 07:21:07;;;;;;;29.63;11.60;;;-7.50;99.90;;;;;;5028070;28;20657;-60
2023/01/21 07:23:33;;;;;;;31.17;11.60;;;-7.50;99.90;;;;;;5028147;28;20188;-59
2023/01/21 07:25:58;;;;;;;27.80;12.53;;;-7.50;99.90;;;;;;5024533;28;20272;-60
2023/01/21 07:28:24;;;;;;;32.40;13.27;;;-7.50;99.90;;;;;;5029360;28;20180;-60
2023/01/21 07:30:49;;;;;;;33.03;14.00;;;-7.50;99.90;;;;;;5029965;28;20816;-60
2023/01/21 07:33:15;;;;;;;27.23;13.80;;;-7.50;99.90;;;;;;5024453;28;20181;-60
2023/01/21 07:35:40;;;;;;;25.77;13.00;;;-7.40;99.90;;;;;;5020755;28;20187;-58
2023/01/21 07:38:06;;;;;;;26.00;10.90;;;-7.40;99.90;;;;;;5030158;28;20184;-59
2023/01/21 07:40:32;;;;;;;25.23;11.50;;;-7.50;99.90;;;;;;5026896;28;20188;-60
2023/01/21 07:42:57;;;;;;;24.80;11.63;;;-7.50;99.90;;;;;;5026217;28;20200;-59
2023/01/21 07:45:24;;;;;;;28.87;13.73;;;-7.50;99.90;;;;;;5025968;28;20199;-60
2023/01/21 07:47:49;;;;;;;28.17;12.63;;;-7.40;99.90;;;;;;5029106;28;20176;-60
2023/01/21 07:50:15;;;;;;;30.37;13.10;;;-7.40;99.90;;;;;;5026896;28;20200;-59
2023/01/21 07:52:41;;;;;;;27.88;13.50;;;-7.40;99.90;;;;;;5026873;28;20650;-59
2023/01/21 07:55:08;;;;;;;26.00;12.43;;;-7.30;99.90;;;;;;5026500;28;20208;-60
2023/01/21 07:57:34;;;;;;;29.20;13.45;;;-7.30;99.90;;;;;;5018452;28;20582;-58
2023/01/21 07:59:59;;;;;;;24.17;11.20;;;-7.20;99.90;;;;;;5024120;28;20630;-56
2023/01/21 08:02:25;;;;;;;30.23;12.83;;;-7.10;99.90;;;;;;5018792;28;20212;-60
2023/01/21 08:04:50;;;;;;;34.20;17.03;;;-7.10;99.90;;;;;;5011908;28;20199;-61
2023/01/21 08:07:16;;;;;;;39.17;20.10;;;-7.00;99.90;;;;;;5018250;28;20176;-60
2023/01/21 08:09:42;;;;;;;25.60;12.60;;;-6.80;99.90;;;;;;5019488;28;20177;-61
2023/01/21 08:12:08;;;;;;;27.20;11.50;;;-6.70;99.90;;;;;;5022454;28;20229;-61
2023/01/21 08:14:34;;;;;;;26.17;12.63;;;-6.60;99.90;;;;;;5024257;28;20727;-59
2023/01/21 08:17:00;;;;;;;25.87;12.23;;;-6.60;99.90;;;;;;5014992;28;20189;-58
2023/01/21 08:19:26;;;;;;;23.85;11.57;;;-6.50;99.90;;;;;;5022946;28;20191;-60
2023/01/21 08:21:52;;;;;;;29.23;11.90;;;-6.40;99.90;;;;;;5020902;28;20204;-59
2023/01/21 08:24:17;;;;;;;23.20;10.88;;;-6.40;99.90;;;;;;5021477;28;20184;-61
2023/01/21 08:26:43;;;;;;;19.30;11.57;;;-6.30;99.90;;;;;;5014134;28;20191;-60
2023/01/21 08:29:09;;;;;;;31.93;14.23;;;-6.30;99.90;;;;;;5038300;28;20264;-60
2023/01/21 08:31:34;;;;;;;28.93;14.13;;;-6.30;99.90;;;;;;5018942;28;20259;-60
2023/01/21 08:34:00;;;;;;;28.00;13.60;;;-6.20;99.90;;;;;;5018602;28;20179;-60
2023/01/21 08:36:26;;;;;;;23.03;11.87;;;-6.20;99.90;;;;;;5014871;28;20311;-60
2023/01/21 08:39:00;;;;;;;37.00;15.13;;;-6.10;99.90;;;;;;5021442;28;20211;-60
2023/01/21 08:41:26;;;;;;;44.20;19.38;;;-6.10;99.90;;;;;;5018156;28;20702;-60
2023/01/21 08:43:52;;;;;;;40.70;17.70;;;-6.00;99.90;;;;;;5016511;28;20221;-60
2023/01/21 08:46:18;;;;;;;38.90;17.80;;;-6.00;99.90;;;;;;5021060;28;20948;-61
2023/01/21 08:48:43;;;;;;;37.60;16.97;;;-5.90;99.90;;;;;;5015735;28;20186;-61
2023/01/21 08:51:09;;;;;;;43.97;16.90;;;-5.80;99.90;;;;;;5015444;28;20278;-61
2023/01/21 08:53:35;;;;;;;43.27;19.40;;;-5.70;99.90;;;;;;5017702;28;20704;-60
2023/01/21 08:56:02;;;;;;;45.70;18.90;;;-5.60;99.90;;;;;;5032879;28;20282;-60
2023/01/21 08:58:29;;;;;;;34.13;13.47;;;-5.60;99.90;;;;;;5013923;28;20646;-59
2023/01/21 09:00:55;;;;;;;28.57;14.20;;;-5.50;99.90;;;;;;5019994;28;21072;-60
2023/01/21 09:03:21;;;;;;;31.40;14.00;;;-5.50;99.90;;;;;;5020701;28;20443;-60
2023/01/21 09:05:50;;;;;;;38.47;15.50;;;-5.50;99.90;;;;;;5015243;28;20450;-62
2023/01/21 09:08:17;;;;;;;35.13;16.43;;;-5.50;99.90;;;;;;5030139;28;20439;-62
2023/01/21 09:11:00;;;;;;;42.97;17.20;;;-5.40;99.90;;;;;;5012446;28;20467;-57
2023/01/21 09:13:31;;;;;;;48.40;22.00;;;-5.30;99.90;;;;;;5020401;28;20527;-60
2023/01/21 09:15:57;;;;;;;48.10;23.17;;;-5.10;99.90;;;;;;5023080;28;20446;-61
2023/01/21 09:18:23;;;;;;;60.40;26.70;;;-5.00;99.90;;;;;;5023654;28;20421;-60
2023/01/21 09:20:49;;;;;;;49.50;23.50;;;-4.80;99.90;;;;;;5024941;28;20443;-60
2023/01/21 09:23:23;;;;;;;65.17;26.63;;;-4.70;99.90;;;;;;5019431;28;20436;-60
2023/01/21 09:25:50;;;;;;;50.57;22.20;;;-4.60;99.90;;;;;;5025798;28;20552;-60
2023/01/21 09:28:16;;;;;;;51.93;21.90;;;-4.50;99.90;;;;;;5024402;28;20440;-60
2023/01/21 09:30:42;;;;;;;52.63;22.30;;;-4.30;99.90;;;;;;5023924;28;20468;-60
2023/01/21 09:33:07;;;;;;;45.37;20.70;;;-4.20;99.90;;;;;;5020840;28;20490;-60
2023/01/21 09:35:33;;;;;;;49.90;22.60;;;-4.10;99.90;;;;;;5026599;28;20173;-60
2023/01/21 09:37:58;;;;;;;41.43;21.27;;;-3.90;99.90;;;;;;5029610;28;20209;-60
2023/01/21 09:40:24;;;;;;;41.53;21.40;;;-3.80;99.90;;;;;;5026854;28;20188;-60
2023/01/21 09:42:49;;;;;;;43.93;21.60;;;-3.70;99.90;;;;;;5019207;28;20761;-60
2023/01/21 09:45:17;;;;;;;45.60;19.33;;;-3.60;99.90;;;;;;5020770;28;20181;-60
2023/01/21 09:47:45;;;;;;;44.87;20.23;;;-3.50;99.90;;;;;;5027541;28;20225;-60
2023/01/21 09:50:13;;;;;;;47.27;21.00;;;-3.40;99.90;;;;;;5024502;28;20934;-61
2023/01/21 09:52:45;;;;;;;43.83;19.77;;;-3.40;99.90;;;;;;5024578;28;20657;-60
2023/01/21 09:55:14;;;;;;;46.87;21.57;;;-3.30;99.90;;;;;;5024873;28;20427;-60
2023/01/21 09:57:50;;;;;;;46.97;20.90;;;-3.30;99.90;;;;;;5022709;28;20485;-60
2023/01/21 10:00:23;;;;;;;42.97;20.83;;;-3.20;99.90;;;;;;5014629;28;20948;-60
2023/01/21 10:03:07;;;;;;;45.37;21.70;;;-3.20;99.90;;;;;;5023142;28;20633;-61
2023/01/21 10:05:53;;;;;;;48.30;22.43;;;-3.10;99.90;;;;;;5027498;28;20463;-60
2023/01/21 10:08:54;;;;;;;66.63;23.20;;;-3.00;99.90;;;;;;5025496;28;20463;-60
2023/01/21 10:11:20;;;;;;;49.40;22.20;;;-2.80;99.90;;;;;;5023260;28;20467;-60
2023/01/21 10:14:23;;;;;;;52.83;22.50;;;-2.70;99.90;;;;;;5021136;28;20440;-60
2023/01/21 10:17:21;;;;;;;47.63;22.53;;;-2.60;99.90;;;;;;5021326;28;20430;-60
2023/01/21 10:19:51;;;;;;;47.87;22.43;;;-2.40;99.90;;;;;;5013122;28;20434;-60
2023/01/21 10:22:22;;;;;;;47.80;23.00;;;-2.20;99.90;;;;;;5025042;28;20812;-60
2023/01/21 10:24:56;;;;;;;44.50;21.70;;;-2.00;99.90;;;;;;5026447;28;20431;-61
2023/01/21 10:27:23;;;;;;;47.17;24.27;;;-1.80;99.90;;;;;;5022962;28;20433;-60
2023/01/21 10:29:54;;;;;;;56.37;22.73;;;-1.70;99.90;;;;;;5028108;28;20554;-60
2023/01/21 10:32:24;;;;;;;48.70;20.67;;;-1.50;99.90;;;;;;5027934;28;20452;-59
2023/01/21 10:34:52;;;;;;;43.80;21.20;;;-1.50;97.90;;;;;;5029128;28;20519;-60
2023/01/21 10:37:24;;;;;;;41.43;20.30;;;-1.50;98.30;;;;;;5025906;28;20432;-60
2023/01/21 10:39:52;;;;;;;35.40;15.83;;;-1.30;99.20;;;;;;5027695;28;20433;-62
2023/01/21 10:42:30;;;;;;;29.23;15.83;;;-1.20;98.90;;;;;;5017966;28;20613;-59
2023/01/21 10:45:36;;;;;;;28.30;13.90;;;-1.10;98.10;;;;;;5030352;28;20955;-59
2023/01/21 10:48:35;;;;;;;32.40;14.57;;;-0.80;97.80;;;;;;5011657;28;20437;-59
2023/01/21 10:51:13;;;;;;;24.60;12.10;;;-0.70;95.70;;;;;;5021459;28;22419;-61
2023/01/21 10:53:49;;;;;;;27.53;13.03;;;-0.70;95.70;;;;;;5026607;28;20523;-61
2023/01/21 10:56:36;;;;;;;23.60;11.33;;;-0.60;95.40;;;;;;5007525;28;20435;-59
2023/01/21 10:59:12;;;;;;;24.30;12.53;;;-0.60;94.40;;;;;;5017370;28;20436;-59
2023/01/21 11:01:52;;;;;;;27.20;12.17;;;-0.50;95.10;;;;;;5014343;28;20455;-57
2023/01/21 11:04:22;;;;;;;34.83;12.00;;;-0.30;95.10;;;;;;5018236;28;20849;-56
2023/01/21 11:06:59;;;;;;;32.50;10.87;;;-0.10;92.90;;;;;;5017151;28;20491;-58
2023/01/21 11:09:30;;;;;;;28.60;11.97;;;0.00;92.40;;;;;;5014354;28;21112;-58
2023/01/21 11:11:56;;;;;;;22.93;12.47;;;0.10;91.60;;;;;;5010155;28;20570;-60
2023/01/21 11:14:24;;;;;;;21.60;10.27;;;0.20;92.00;;;;;;5011395;28;20429;-58
2023/01/21 11:16:51;;;;;;;12.50;6.53;;;0.30;88.80;;;;;;5016531;28;20182;-58
2023/01/21 11:19:31;;;;;;;12.17;5.30;;;0.20;88.80;;;;;;5013901;28;20545;-60
2023/01/21 11:22:03;;;;;;;13.23;6.97;;;0.30;90.50;;;;;;5014862;28;20819;-51
2023/01/21 11:24:31;;;;;;;12.87;6.70;;;0.50;89.70;;;;;;5012613;28;20878;-56
2023/01/21 11:27:00;;;;;;;11.90;6.03;;;0.50;84.20;;;;;;5015641;28;20428;-58
2023/01/21 11:29:38;;;;;;;9.77;5.03;;;0.40;83.60;;;;;;5023224;28;20473;-60
2023/01/21 11:32:21;;;;;;;8.10;5.70;;;0.30;83.70;;;;;;5018116;28;20496;-57
2023/01/21 11:34:56;;;;;;;7.20;4.50;;;0.30;84.70;;;;;;5018866;28;20547;-59
2023/01/21 11:37:32;;;;;;;16.07;5.80;;;0.20;86.80;;;;;;5019868;28;20436;-55
2023/01/21 11:39:59;;;;;;;9.57;5.83;;;0.20;85.70;;;;;;5018149;28;20429;-58
2023/01/21 11:42:25;;;;;;;15.17;7.53;;;0.20;85.80;;;;;;5014359;28;20457;-61
2023/01/21 11:45:11;;;;;;;12.27;7.10;;;0.20;86.80;;;;;;5020151;28;20490;-60
2023/01/21 11:47:48;;;;;;;13.47;7.30;;;0.10;87.90;;;;;;5019049;28;20424;-56
2023/01/21 11:50:26;;;;;;;10.90;7.07;;;0.00;89.10;;;;;;5013188;28;20522;-58
2023/01/21 11:53:11;;;;;;;12.97;7.53;;;0.00;90.00;;;;;;5014299;28;21073;-58
2023/01/21 11:55:40;;;;;;;11.13;6.33;;;-0.20;89.70;;;;;;5021223;28;20435;-59
2023/01/21 11:58:27;;;;;;;13.47;6.47;;;-0.30;90.60;;;;;;5019368;28;20638;-59
2023/01/21 12:00:55;;;;;;;10.03;7.10;;;-0.40;90.60;;;;;;5016192;28;20436;-60
2023/01/21 12:03:41;;;;;;;11.67;6.90;;;-0.60;90.60;;;;;;5020301;28;20425;-56
2023/01/21 12:06:07;;;;;;;16.13;7.93;;;-0.70;91.40;;;;;;5009834;28;22413;-57
2023/01/21 12:08:35;;;;;;;17.63;7.77;;;-0.80;91.00;;;;;;5015338;28;20442;-56
2023/01/21 12:11:05;;;;;;;15.00;7.43;;;-0.80;92.00;;;;;;5016300;28;20973;-58
2023/01/21 12:13:49;;;;;;;14.40;6.30;;;-0.80;92.10;;;;;;5014593;28;20719;-60
2023/01/21 12:16:34;;;;;;;19.50;7.10;;;-0.90;91.60;;;;;;5021644;28;20440;-60
2023/01/21 12:19:15;;;;;;;12.90;7.03;;;-0.90;90.50;;;;;;5016825;28;20511;-59
2023/01/21 12:21:44;;;;;;;16.50;7.90;;;-1.00;91.10;;;;;;5010510;28;20490;-60
2023/01/21 12:24:15;;;;;;;15.50;7.73;;;-1.10;92.40;;;;;;5018950;28;20469;-60
2023/01/21 12:27:01;;;;;;;14.83;7.60;;;-1.20;93.10;;;;;;5030983;28;20461;-60
2023/01/21 12:29:42;;;;;;;14.77;7.80;;;-1.30;94.10;;;;;;5009405;28;20486;-59
2023/01/21 12:32:18;;;;;;;13.20;7.33;;;-1.40;95.30;;;;;;5007695;28;20471;-59
2023/01/21 12:34:59;;;;;;;15.90;8.07;;;-1.50;96.50;;;;;;5012569;28;20435;-58
2023/01/21 12:37:31;;;;;;;15.27;7.43;;;-1.60;98.00;;;;;;5004955;28;20436;-60
2023/01/21 12:40:01;;;;;;;17.13;8.03;;;-1.60;99.90;;;;;;5013210;28;20956;-61
2023/01/21 12:42:33;;;;;;;19.73;8.30;;;-1.50;99.90;;;;;;5014756;28;20917;-59
2023/01/21 12:45:11;;;;;;;19.37;8.53;;;-1.50;99.90;;;;;;5012370;28;20571;-63
2023/01/21 12:48:02;;;;;;;15.87;8.60;;;-1.60;99.60;;;;;;5013315;28;20563;-61